createdAt,value
2018-09-25T00:00:08.483Z,98515.52
2018-09-25T00:02:43.829Z,98507.20
2018-09-25T00:05:19.262Z,98505.14
2018-09-25T00:07:54.800Z,98509.44
2018-09-25T00:10:29.953Z,98502.14
2018-09-25T00:13:04.315Z,98500.44
2018-09-25T00:15:39.584Z,98506.87
2018-09-25T00:18:15.291Z,98502.29
2018-09-25T00:20:50.187Z,98502.08
2018-09-25T00:23:25.701Z,98516.77
2018-09-25T00:26:00.699Z,98510.95
2018-09-25T00:28:36.308Z,98512.59
2018-09-25T00:31:11.462Z,98511.94
2018-09-25T00:33:46.979Z,98504.84
2018-09-25T00:36:22.323Z,98513.41
2018-09-25T00:38:58.607Z,98516.67
2018-09-25T00:41:33.705Z,98519.49
2018-09-25T00:44:08.993Z,98518.03
2018-09-25T00:46:43.891Z,98517.23
2018-09-25T00:49:18.987Z,98521.02
2018-09-25T00:51:53.914Z,98516.09
2018-09-25T00:54:29.800Z,98515.61
2018-09-25T00:57:05.029Z,98520.07
2018-09-25T00:59:40.669Z,98514.81
2018-09-25T01:02:16.009Z,98518.11
2018-09-25T01:04:51.015Z,98515.34
2018-09-25T01:07:25.961Z,98514.92
2018-09-25T01:10:02.043Z,98504.78
2018-09-25T01:12:36.949Z,98505.97
2018-09-25T01:15:12.569Z,98509.65
2018-09-25T01:17:47.681Z,98503.34
2018-09-25T01:20:23.017Z,98496.27
2018-09-25T01:22:58.094Z,98499.39
2018-09-25T01:25:33.715Z,98501.05
2018-09-25T01:28:08.821Z,98503.78
2018-09-25T01:30:44.377Z,98498.33
2018-09-25T01:33:19.022Z,98505.28
2018-09-25T01:35:54.366Z,98508.13
2018-09-25T01:38:29.555Z,98508.91
2018-09-25T01:41:04.437Z,98511.37
2018-09-25T01:43:39.275Z,98508.56
2018-09-25T01:46:14.564Z,98505.96
2018-09-25T01:48:49.033Z,98502.52
2018-09-25T01:51:24.448Z,98501.91
2018-09-25T01:53:59.065Z,98498.63
2018-09-25T01:56:34.106Z,98501.14
2018-09-25T01:59:09.092Z,98498.30
2018-09-25T02:01:44.173Z,98499.15
2018-09-25T02:04:19.137Z,98501.42
2018-09-25T02:06:54.355Z,98502.41
2018-09-25T02:09:28.933Z,98496.02
2018-09-25T02:12:04.710Z,98499.34
2018-09-25T02:14:39.756Z,98503.91
2018-09-25T02:17:14.831Z,98509.63
2018-09-25T02:19:49.921Z,98510.23
2018-09-25T02:22:24.869Z,98512.55
2018-09-25T02:24:59.995Z,98510.70
2018-09-25T02:27:35.546Z,98518.47
2018-09-25T02:30:10.641Z,98520.25
2018-09-25T02:32:45.917Z,98520.20
2018-09-25T02:35:20.952Z,98515.14
2018-09-25T02:37:55.779Z,98517.66
2018-09-25T02:40:31.050Z,98521.05
2018-09-25T02:43:06.287Z,98524.38
2018-09-25T02:45:40.975Z,98530.59
2018-09-25T02:48:16.310Z,98527.09
2018-09-25T02:50:51.663Z,98528.91
2018-09-25T02:53:26.541Z,98531.82
2018-09-25T02:56:01.871Z,98538.67
2018-09-25T02:58:36.785Z,98543.51
2018-09-25T03:01:12.511Z,98538.95
2018-09-25T03:03:48.087Z,98543.69
2018-09-25T03:06:23.725Z,98543.33
2018-09-25T03:08:59.497Z,98537.97
2018-09-25T03:11:34.743Z,98533.03
2018-09-25T03:14:09.609Z,98535.13
2018-09-25T03:16:44.482Z,98536.80
2018-09-25T03:19:19.934Z,98525.53
2018-09-25T03:21:55.257Z,98522.85
2018-09-25T03:24:30.788Z,98529.42
2018-09-25T03:27:06.179Z,98531.55
2018-09-25T03:29:41.676Z,98527.66
2018-09-25T03:32:16.863Z,98527.10
2018-09-25T03:34:52.053Z,98533.70
2018-09-25T03:37:27.546Z,98535.61
2018-09-25T03:40:02.566Z,98529.05
2018-09-25T03:42:37.582Z,98528.60
2018-09-25T03:45:13.321Z,98538.89
2018-09-25T03:47:48.719Z,98531.41
2018-09-25T03:50:24.121Z,98531.77
2018-09-25T03:52:59.587Z,98532.20
2018-09-25T03:55:34.928Z,98534.06
2018-09-25T03:58:09.715Z,98535.25
2018-09-25T04:00:45.415Z,98526.13
2018-09-25T04:03:20.411Z,98534.98
2018-09-25T04:05:55.397Z,98531.77
2018-09-25T04:08:30.396Z,98535.14
2018-09-25T04:11:05.562Z,98545.81
2018-09-25T04:13:40.991Z,98547.92
2018-09-25T04:16:16.315Z,98540.84
2018-09-25T04:18:51.355Z,98551.50
2018-09-25T04:21:26.997Z,98558.22
2018-09-25T04:24:02.031Z,98561.23
2018-09-25T04:26:37.594Z,98560.30
2018-09-25T04:29:13.140Z,98557.80
2018-09-25T04:31:48.512Z,98565.16
2018-09-25T04:34:23.323Z,98564.01
2018-09-25T04:36:58.420Z,98574.31
2018-09-25T04:39:33.450Z,98574.53
2018-09-25T04:42:08.398Z,98578.41
2018-09-25T04:44:43.311Z,98581.91
2018-09-25T04:47:20.838Z,98588.69
2018-09-25T04:49:58.029Z,98591.13
2018-09-25T04:52:36.587Z,98588.59
2018-09-25T04:55:12.046Z,98586.97
2018-09-25T04:57:47.535Z,98588.84
2018-09-25T05:00:23.035Z,98587.44
2018-09-25T05:02:58.001Z,98589.80
2018-09-25T05:05:33.069Z,98593.08
2018-09-25T05:08:08.854Z,98594.20
2018-09-25T05:10:44.376Z,98600.63
2018-09-25T05:13:20.055Z,98602.61
2018-09-25T05:15:55.201Z,98606.78
2018-09-25T05:18:30.746Z,98606.32
2018-09-25T05:21:05.980Z,98599.48
2018-09-25T05:23:42.844Z,98597.41
2018-09-25T05:26:17.505Z,98604.47
2018-09-25T05:28:53.499Z,98609.72
2018-09-25T05:31:28.679Z,98611.87
2018-09-25T05:34:04.637Z,98621.70
2018-09-25T05:36:39.854Z,98616.11
2018-09-25T05:39:15.852Z,98611.32
2018-09-25T05:41:51.104Z,98622.31
2018-09-25T05:44:26.316Z,98624.20
2018-09-25T05:47:01.773Z,98626.84
2018-09-25T05:49:37.813Z,98627.16
2018-09-25T05:52:13.684Z,98628.56
2018-09-25T05:54:48.477Z,98625.70
2018-09-25T05:57:24.292Z,98629.33
2018-09-25T05:59:59.370Z,98625.50
2018-09-25T06:02:34.330Z,98626.11
2018-09-25T06:05:09.230Z,98624.70
2018-09-25T06:07:44.365Z,98626.00
2018-09-25T06:10:19.731Z,98626.30
2018-09-25T06:12:55.705Z,98629.83
2018-09-25T06:15:30.938Z,98632.48
2018-09-25T06:18:06.355Z,98633.97
2018-09-25T06:20:41.800Z,98638.35
2018-09-25T06:23:16.948Z,98649.33
2018-09-25T06:25:51.888Z,98644.48
2018-09-25T06:28:27.328Z,98648.53
2018-09-25T06:31:02.240Z,98647.33
2018-09-25T06:33:37.716Z,98651.92
2018-09-25T06:36:12.621Z,98653.03
2018-09-25T06:38:48.421Z,98662.02
2018-09-25T06:41:23.111Z,98669.72
2018-09-25T06:43:58.874Z,98661.77
2018-09-25T06:46:33.973Z,98674.70
2018-09-25T06:49:09.751Z,98674.88
2018-09-25T06:51:44.958Z,98679.23
2018-09-25T06:54:20.769Z,98685.49
2018-09-25T06:56:55.869Z,98687.63
2018-09-25T06:59:30.521Z,98683.84
2018-09-25T07:02:05.545Z,98684.24
2018-09-25T07:04:41.225Z,98675.77
2018-09-25T07:07:15.893Z,98684.95
2018-09-25T07:09:51.440Z,98689.18
2018-09-25T07:12:26.219Z,98689.40
2018-09-25T07:15:01.771Z,98693.23
2018-09-25T07:17:37.280Z,98689.83
2018-09-25T07:20:13.065Z,98698.80
2018-09-25T07:22:48.564Z,98701.93
2018-09-25T07:25:24.325Z,98713.95
2018-09-25T07:27:59.760Z,98706.75
2018-09-25T07:30:35.288Z,98703.59
2018-09-25T07:33:10.401Z,98706.11
2018-09-25T07:35:46.231Z,98706.28
2018-09-25T07:38:21.825Z,98704.48
2018-09-25T07:40:57.166Z,98698.48
2018-09-25T07:43:32.418Z,98703.81
2018-09-25T07:46:07.478Z,98696.27
2018-09-25T07:48:42.730Z,98699.36
2018-09-25T07:51:18.337Z,98705.51
2018-09-25T07:53:54.338Z,98695.36
2018-09-25T07:56:30.131Z,98704.78
2018-09-25T07:59:05.839Z,98698.94
2018-09-25T08:01:40.991Z,98692.19
2018-09-25T08:04:16.916Z,98699.21
2018-09-25T08:06:52.036Z,98706.63
2018-09-25T08:09:27.479Z,98703.48
2018-09-25T08:12:02.656Z,98699.12
2018-09-25T08:14:38.143Z,98700.61
2018-09-25T08:17:13.501Z,98701.81
2018-09-25T08:19:49.429Z,98697.53
2018-09-25T08:22:24.070Z,98697.28
2018-09-25T08:24:59.852Z,98694.72
2018-09-25T08:27:34.654Z,98699.80
2018-09-25T08:30:09.684Z,98690.77
2018-09-25T08:32:43.870Z,98696.36
2018-09-25T08:35:19.163Z,98699.57
2018-09-25T08:38:01.026Z,98702.70
2018-09-25T08:40:36.126Z,98701.52
2018-09-25T08:43:11.095Z,98701.52
2018-09-25T08:45:45.765Z,98708.25
2018-09-25T08:48:20.875Z,98694.83
2018-09-25T08:50:56.025Z,98706.58
2018-09-25T08:53:30.692Z,98702.98
2018-09-25T08:56:05.239Z,98704.80
2018-09-25T08:58:40.167Z,98704.84
2018-09-25T09:01:15.053Z,98704.28
2018-09-25T09:03:50.549Z,98703.14
2018-09-25T09:06:25.214Z,98706.28
2018-09-25T09:09:01.401Z,98712.20
2018-09-25T09:11:36.181Z,98706.20
2018-09-25T09:14:11.862Z,98701.32
2018-09-25T09:16:47.054Z,98700.58
2018-09-25T09:19:22.434Z,98700.28
2018-09-25T09:21:56.840Z,98715.51
2018-09-25T09:24:32.632Z,98716.88
2018-09-25T09:27:07.694Z,98711.02
2018-09-25T09:29:42.217Z,98716.75
2018-09-25T09:32:17.227Z,98710.99
2018-09-25T09:34:53.022Z,98713.97
2018-09-25T09:37:28.301Z,98713.83
2018-09-25T09:40:03.593Z,98716.66
2018-09-25T09:42:39.544Z,98710.47
2018-09-25T09:45:15.512Z,98718.24
2018-09-25T09:47:50.634Z,98713.06
2018-09-25T09:50:25.481Z,98715.27
2018-09-25T09:53:00.932Z,98715.52
2018-09-25T09:55:36.904Z,98709.31
2018-09-25T09:58:12.057Z,98712.54
2018-09-25T10:00:47.442Z,98712.61
2018-09-25T10:03:22.596Z,98708.56
2018-09-25T10:05:58.027Z,98703.81
2018-09-25T10:08:32.904Z,98707.25
2018-09-25T10:11:08.340Z,98707.97
2018-09-25T10:13:43.115Z,98693.85
2018-09-25T10:16:19.009Z,98704.58
2018-09-25T10:18:54.094Z,98707.02
2018-09-25T10:21:29.349Z,98700.60
2018-09-25T10:24:04.680Z,98701.10
2018-09-25T10:26:39.725Z,98705.80
2018-09-25T10:29:14.724Z,98704.31
2018-09-25T10:31:49.794Z,98705.73
2018-09-25T10:34:24.176Z,98706.39
2018-09-25T10:36:59.987Z,98711.11
2018-09-25T10:39:34.553Z,98701.39
2018-09-25T10:42:09.420Z,98705.02
2018-09-25T10:44:44.788Z,98697.67
2018-09-25T10:47:20.052Z,98702.72
2018-09-25T10:49:55.599Z,98702.34
2018-09-25T10:52:31.154Z,98697.87
2018-09-25T10:55:06.172Z,98703.80
2018-09-25T10:57:40.327Z,98697.70
2018-09-25T11:00:15.696Z,98699.47
2018-09-25T11:02:50.679Z,98698.97
2018-09-25T11:05:25.351Z,98700.30
2018-09-25T11:07:59.962Z,98698.92
2018-09-25T11:10:35.544Z,98692.89
2018-09-25T11:13:10.620Z,98691.73
2018-09-25T11:15:45.549Z,98688.39
2018-09-25T11:18:20.237Z,98678.73
2018-09-25T11:20:56.003Z,98683.84
2018-09-25T11:23:31.277Z,98678.20
2018-09-25T11:26:06.661Z,98669.22
2018-09-25T11:28:41.463Z,98677.11
2018-09-25T11:31:16.289Z,98673.04
2018-09-25T11:33:51.148Z,98673.89
2018-09-25T11:36:25.825Z,98666.74
2018-09-25T11:39:00.019Z,98664.21
2018-09-25T11:41:34.650Z,98657.95
2018-09-25T11:44:09.462Z,98661.77
2018-09-25T11:46:43.878Z,98660.27
2018-09-25T11:49:18.691Z,98656.47
2018-09-25T11:51:53.641Z,98654.89
2018-09-25T11:54:28.708Z,98655.41
2018-09-25T11:57:03.221Z,98660.60
2018-09-25T11:59:37.913Z,98643.78
2018-09-25T12:02:12.207Z,98644.05
2018-09-25T12:04:46.740Z,98643.02
2018-09-25T12:07:21.644Z,98639.50
2018-09-25T12:09:56.720Z,98643.67
2018-09-25T12:12:31.030Z,98640.09
2018-09-25T12:15:05.294Z,98638.66
2018-09-25T12:17:39.986Z,98629.63
2018-09-25T12:20:14.782Z,98628.56
2018-09-25T12:22:48.995Z,98630.86
2018-09-25T12:25:24.131Z,98632.08
2018-09-25T12:27:59.122Z,98634.78
2018-09-25T12:30:33.185Z,98638.77
2018-09-25T12:33:07.209Z,98634.40
2018-09-25T12:35:41.603Z,98625.06
2018-09-25T12:38:15.621Z,98626.23
2018-09-25T12:40:50.253Z,98620.77
2018-09-25T12:43:24.407Z,98619.72
2018-09-25T12:45:58.873Z,98615.28
2018-09-25T12:48:33.638Z,98618.95
2018-09-25T12:51:08.230Z,98618.94
2018-09-25T12:53:42.641Z,98618.95
2018-09-25T12:56:17.653Z,98630.19
2018-09-25T12:58:51.990Z,98625.58
2018-09-25T13:01:26.853Z,98617.77
2018-09-25T13:04:01.488Z,98615.25
2018-09-25T13:06:35.828Z,98606.03
2018-09-25T13:09:11.916Z,98619.61
2018-09-25T13:11:46.824Z,98613.84
2018-09-25T13:14:21.270Z,98615.38
2018-09-25T13:16:56.001Z,98625.58
2018-09-25T13:19:30.574Z,98620.85
2018-09-25T13:22:05.258Z,98618.41
2018-09-25T13:24:39.629Z,98622.23
2018-09-25T13:27:14.427Z,98619.77
2018-09-25T13:29:48.692Z,98627.90
2018-09-25T13:32:23.069Z,98633.42
2018-09-25T13:34:57.199Z,98635.52
2018-09-25T13:37:31.512Z,98624.59
2018-09-25T13:40:05.627Z,98630.71
2018-09-25T13:42:39.975Z,98622.64
2018-09-25T13:45:14.057Z,98630.13
2018-09-25T13:47:47.865Z,98626.23
2018-09-25T13:50:22.430Z,98620.24
2018-09-25T13:52:56.440Z,98621.05
2018-09-25T13:55:30.410Z,98616.11
2018-09-25T13:58:04.371Z,98602.25
2018-09-25T14:00:38.350Z,98605.41
2018-09-25T14:03:12.518Z,98609.05
2018-09-25T14:05:47.149Z,98596.24
2018-09-25T14:08:21.199Z,98595.48
2018-09-25T14:10:55.221Z,98596.52
2018-09-25T14:13:29.241Z,98586.10
2018-09-25T14:16:03.130Z,98592.36
2018-09-25T14:18:37.119Z,98589.19
2018-09-25T14:21:11.121Z,98601.73
2018-09-25T14:23:44.977Z,98594.70
2018-09-25T14:26:19.260Z,98581.17
2018-09-25T14:28:54.137Z,98580.63
2018-09-25T14:31:28.596Z,98581.93
2018-09-25T14:34:03.496Z,98576.99
2018-09-25T14:36:38.078Z,98578.28
2018-09-25T14:39:13.661Z,98580.34
2018-09-25T14:41:47.763Z,98585.30
2018-09-25T14:44:21.684Z,98586.09
2018-09-25T14:46:55.710Z,98601.95
2018-09-25T14:49:29.999Z,98600.95
2018-09-25T14:52:04.197Z,98594.36
2018-09-25T14:54:38.453Z,98589.26
2018-09-25T14:57:12.604Z,98594.39
2018-09-25T14:59:46.689Z,98594.88
2018-09-25T15:02:20.657Z,98588.77
2018-09-25T15:04:54.910Z,98580.95
2018-09-25T15:07:28.938Z,98578.20
2018-09-25T15:10:03.213Z,98583.02
2018-09-25T15:12:37.198Z,98583.30
2018-09-25T15:15:18.053Z,98580.63
2018-09-25T15:17:52.100Z,98582.87
2018-09-25T15:20:25.889Z,98571.38
2018-09-25T15:22:59.980Z,98560.61
2018-09-25T15:25:33.934Z,98571.25
2018-09-25T15:28:07.795Z,98577.45
2018-09-25T15:30:41.834Z,98569.66
2018-09-25T15:33:15.757Z,98569.84
2018-09-25T15:35:49.911Z,98574.89
2018-09-25T15:38:23.810Z,98563.73
2018-09-25T15:40:58.021Z,98565.91
2018-09-25T15:43:31.986Z,98563.47
2018-09-25T15:46:05.962Z,98560.94
2018-09-25T15:48:39.940Z,98557.48
2018-09-25T15:51:13.945Z,98553.31
2018-09-25T15:53:47.919Z,98557.02
2018-09-25T15:56:22.105Z,98560.67
2018-09-25T15:58:56.086Z,98561.63
2018-09-25T16:01:30.086Z,98565.95
2018-09-25T16:04:04.206Z,98573.47
2018-09-25T16:06:38.134Z,98578.98
2018-09-25T16:09:14.488Z,98584.89
2018-09-25T16:11:48.528Z,98582.82
2018-09-25T16:14:22.508Z,98575.45
2018-09-25T16:16:56.639Z,98572.79
2018-09-25T16:19:30.745Z,98568.03
2018-09-25T16:22:04.833Z,98564.68
2018-09-25T16:24:38.771Z,98566.29
2018-09-25T16:27:12.886Z,98570.66
2018-09-25T16:29:47.212Z,98572.30
2018-09-25T16:32:28.099Z,98578.14
2018-09-25T16:35:02.313Z,98583.56
2018-09-25T16:37:36.691Z,98583.67
2018-09-25T16:40:10.933Z,98586.36
2018-09-25T16:42:45.128Z,98584.72
2018-09-25T16:45:19.462Z,98589.45
2018-09-25T16:47:53.674Z,98586.81
2018-09-25T16:50:28.009Z,98591.44
2018-09-25T16:53:02.115Z,98596.00
2018-09-25T16:55:36.289Z,98595.78
2018-09-25T16:58:10.382Z,98590.03
2018-09-25T17:00:44.698Z,98588.88
2018-09-25T17:03:18.713Z,98588.34
2018-09-25T17:05:52.900Z,98582.70
2018-09-25T17:08:27.105Z,98575.95
2018-09-25T17:11:01.307Z,98570.94
2018-09-25T17:13:35.516Z,98573.88
2018-09-25T17:16:10.975Z,98582.70
2018-09-25T17:18:51.362Z,98577.36
2018-09-25T17:21:25.553Z,98583.44
2018-09-25T17:23:59.497Z,98579.35
2018-09-25T17:26:33.710Z,98580.73
2018-09-25T17:29:07.713Z,98578.75
2018-09-25T17:31:41.953Z,98574.45
2018-09-25T17:34:15.997Z,98580.75
2018-09-25T17:36:50.509Z,98576.19
2018-09-25T17:39:24.856Z,98578.01
2018-09-25T17:41:59.164Z,98580.38
2018-09-25T17:44:33.509Z,98581.66
2018-09-25T17:47:07.689Z,98581.58
2018-09-25T17:49:41.883Z,98579.87
2018-09-25T17:52:16.066Z,98586.09
2018-09-25T17:54:50.346Z,98578.63
2018-09-25T17:57:24.494Z,98580.20
2018-09-25T17:59:58.632Z,98588.34
2018-09-25T18:02:33.027Z,98580.02
2018-09-25T18:05:07.286Z,98584.09
2018-09-25T18:07:42.044Z,98585.89
2018-09-25T18:10:16.218Z,98579.28
2018-09-25T18:12:50.343Z,98581.80
2018-09-25T18:15:24.742Z,98586.28
2018-09-25T18:17:59.054Z,98589.26
2018-09-25T18:20:32.955Z,98594.69
2018-09-25T18:23:07.131Z,98590.22
2018-09-25T18:25:41.350Z,98596.33
2018-09-25T18:28:15.823Z,98602.05
2018-09-25T18:30:50.087Z,98613.06
2018-09-25T18:33:24.182Z,98614.95
2018-09-25T18:35:58.574Z,98624.52
2018-09-25T18:38:32.733Z,98621.77
2018-09-25T18:41:07.679Z,98637.36
2018-09-25T18:43:41.895Z,98641.05
2018-09-25T18:46:16.246Z,98641.12
2018-09-25T18:48:50.422Z,98638.48
2018-09-25T18:51:24.601Z,98634.89
2018-09-25T18:53:58.557Z,98636.05
2018-09-25T18:56:32.758Z,98626.28
2018-09-25T18:59:06.815Z,98632.38
2018-09-25T19:01:41.094Z,98634.92
2018-09-25T19:04:15.242Z,98633.56
2018-09-25T19:06:49.406Z,98626.56
2018-09-25T19:09:23.750Z,98630.48
2018-09-25T19:11:58.215Z,98634.75
2018-09-25T19:14:32.714Z,98638.44
2018-09-25T19:17:06.782Z,98644.25
2018-09-25T19:19:41.166Z,98643.95
2018-09-25T19:22:15.279Z,98641.30
2018-09-25T19:24:49.557Z,98655.76
2018-09-25T19:27:23.951Z,98650.52
2018-09-25T19:29:58.129Z,98653.61
2018-09-25T19:32:32.262Z,98667.44
2018-09-25T19:35:06.528Z,98674.15
2018-09-25T19:37:43.858Z,98678.22
2018-09-25T19:40:18.102Z,98677.92
2018-09-25T19:42:52.346Z,98680.61
2018-09-25T19:45:26.459Z,98669.95
2018-09-25T19:48:00.825Z,98666.47
2018-09-25T19:50:35.070Z,98662.92
2018-09-25T19:53:09.165Z,98655.44
2018-09-25T19:55:43.523Z,98665.88
2018-09-25T19:58:17.686Z,98664.52
2018-09-25T20:00:51.937Z,98668.56
2018-09-25T20:03:25.821Z,98665.99
2018-09-25T20:05:59.901Z,98674.57
2018-09-25T20:08:33.829Z,98674.57
2018-09-25T20:11:07.836Z,98679.30
2018-09-25T20:13:41.823Z,98675.08
2018-09-25T20:16:15.806Z,98664.20
2018-09-25T20:18:49.690Z,98667.57
2018-09-25T20:24:04.233Z,98663.43
2018-09-25T20:26:38.239Z,98659.87
2018-09-25T20:29:12.484Z,98656.72
2018-09-25T20:31:46.359Z,98657.97
2018-09-25T20:34:20.275Z,98657.09
2018-09-25T20:36:54.153Z,98648.22
2018-09-25T20:42:16.378Z,98648.19
2018-09-25T20:44:50.353Z,98642.42
2018-09-25T20:47:24.708Z,98635.43
2018-09-25T20:49:59.025Z,98634.65
2018-09-25T20:52:33.008Z,98637.58
2018-09-25T20:55:07.263Z,98638.58
2018-09-25T20:57:41.662Z,98649.22
2018-09-25T21:00:15.790Z,98651.26
2018-09-25T21:02:50.001Z,98657.28
2018-09-25T21:05:24.213Z,98654.42
2018-09-25T21:07:58.434Z,98663.07
2018-09-25T21:10:32.727Z,98664.48
2018-09-25T21:13:06.999Z,98664.47
2018-09-25T21:15:41.324Z,98652.80
2018-09-25T21:18:15.421Z,98658.91
2018-09-25T21:20:49.485Z,98647.25
2018-09-25T21:23:23.523Z,98650.04
2018-09-25T21:25:57.505Z,98651.72
2018-09-25T21:28:31.504Z,98655.56
2018-09-25T21:31:05.494Z,98653.63
2018-09-25T21:33:39.358Z,98650.20
2018-09-25T21:36:13.395Z,98643.95
2018-09-25T21:38:47.410Z,98641.02
2018-09-25T21:41:21.403Z,98640.34
2018-09-25T21:43:55.312Z,98635.98
2018-09-25T21:46:29.593Z,98631.41
2018-09-25T21:49:03.609Z,98637.21
2018-09-25T21:51:37.776Z,98625.39
2018-09-25T21:54:11.996Z,98619.97
2018-09-25T21:56:45.928Z,98617.39
2018-09-25T21:59:20.025Z,98619.53
2018-09-25T22:01:54.415Z,98616.59
2018-09-25T22:04:28.696Z,98613.84
2018-09-25T22:07:02.626Z,98608.80
2018-09-25T22:09:36.501Z,98607.81
2018-09-25T22:12:10.430Z,98608.40
2018-09-25T22:14:44.423Z,98604.20
2018-09-25T22:17:18.311Z,98600.77
2018-09-25T22:19:52.278Z,98599.67
2018-09-25T22:22:26.225Z,98597.22
2018-09-25T22:25:00.375Z,98594.76
2018-09-25T22:27:34.666Z,98593.91
2018-09-25T22:30:09.001Z,98592.83
2018-09-25T22:32:43.205Z,98596.22
2018-09-25T22:35:17.548Z,98587.25
2018-09-25T22:37:51.894Z,98585.52
2018-09-25T22:40:26.148Z,98584.35
2018-09-25T22:43:00.334Z,98579.50
2018-09-25T22:45:34.291Z,98580.34
2018-09-25T22:48:08.350Z,98575.28
2018-09-25T22:50:42.306Z,98569.36
2018-09-25T22:53:16.650Z,98573.41
2018-09-25T22:55:50.940Z,98570.63
2018-09-25T22:58:25.284Z,98568.73
2018-09-25T23:00:59.450Z,98558.38
2018-09-25T23:03:33.950Z,98556.45
2018-09-25T23:06:08.246Z,98557.81
2018-09-25T23:08:42.449Z,98567.73
2018-09-25T23:11:16.862Z,98558.47
2018-09-25T23:13:51.256Z,98556.89
2018-09-25T23:16:25.555Z,98553.53
2018-09-25T23:18:59.919Z,98546.55
2018-09-25T23:21:34.423Z,98540.56
2018-09-25T23:24:08.857Z,98538.12
2018-09-25T23:26:43.114Z,98534.05
2018-09-25T23:29:17.455Z,98528.56
2018-09-25T23:31:51.671Z,98522.25
2018-09-25T23:34:26.105Z,98521.59
2018-09-25T23:37:00.366Z,98524.93
2018-09-25T23:39:33.631Z,98529.57
2018-09-25T23:42:10.049Z,98536.05
2018-09-25T23:44:44.067Z,98529.59
2018-09-25T23:47:17.305Z,98527.65
2018-09-25T23:49:51.094Z,98526.09
2018-09-25T23:52:27.277Z,98524.93
2018-09-25T23:55:04.222Z,98511.31
2018-09-25T23:57:38.253Z,98507.98
